Terminal Aerodrome Forecast
Issued by NWS

Home | Current Version | Previous Version | Text Only | Print | Product List | Glossary On
Versions: 1 2 3 4 5 6 7 8 9 10 11 12 13 14 15
000
FTUS45 KRIW 282300
TAFBPI
TAF
KBPI 282323Z 2900/2924 30020G30KT P6SM SKC
     FM290230 34010KT P6SM SKC
     FM290700 VRB05KT P6SM SKC
     FM292100 27010KT P6SM SCT200=

USA.gov is the U.S. government's official web portal to all federal, state and local government web resources and services.